sensor_id;sensor_type;location;lat;lon;timestamp;P1;P2;P0
77411;PMS7003;66484;49.968;19.140;2024-02-23T00:01:33;4.00;4.00;3.67
77411;PMS7003;66484;49.968;19.140;2024-02-23T00:03:55;3.33;2.00;1.00
77411;PMS7003;66484;49.968;19.140;2024-02-23T00:06:04;4.00;4.00;3.00
77411;PMS7003;66484;49.968;19.140;2024-02-23T00:08:25;5.33;5.33;4.33
77411;PMS7003;66484;49.968;19.140;2024-02-23T00:10:34;6.67;5.33;4.00
77411;PMS7003;66484;49.968;19.140;2024-02-23T00:12:55;6.00;5.00;4.00
77411;PMS7003;66484;49.968;19.140;2024-02-23T00:15:04;6.00;5.00;4.00
77411;PMS7003;66484;49.968;19.140;2024-02-23T00:17:33;4.00;4.00;4.00
77411;PMS7003;66484;49.968;19.140;2024-02-23T00:20:02;5.33;5.33;3.67
77411;PMS7003;66484;49.968;19.140;2024-02-23T00:22:11;3.33;3.33;3.00
77411;PMS7003;66484;49.968;19.140;2024-02-23T00:24:33;7.00;7.00;5.33
77411;PMS7003;66484;49.968;19.140;2024-02-23T00:26:42;6.00;5.00;4.00
77411;PMS7003;66484;49.968;19.140;2024-02-23T00:29:06;5.00;5.00;5.00
77411;PMS7003;66484;49.968;19.140;2024-02-23T00:31:14;3.00;3.00;2.00
77411;PMS7003;66484;49.968;19.140;2024-02-23T00:33:43;8.33;4.67;4.33
77411;PMS7003;66484;49.968;19.140;2024-02-23T00:36:12;7.00;6.00;4.00
77411;PMS7003;66484;49.968;19.140;2024-02-23T00:38:21;5.00;5.00;4.00
77411;PMS7003;66484;49.968;19.140;2024-02-23T00:40:42;5.67;4.67;4.00
77411;PMS7003;66484;49.968;19.140;2024-02-23T00:42:51;4.67;4.67;4.00
77411;PMS7003;66484;49.968;19.140;2024-02-23T00:45:21;3.67;3.67;3.33
77411;PMS7003;66484;49.968;19.140;2024-02-23T00:47:50;8.00;3.67;3.33
77411;PMS7003;66484;49.968;19.140;2024-02-23T00:49:58;5.00;5.00;4.00
77411;PMS7003;66484;49.968;19.140;2024-02-23T00:52:20;8.00;6.00;4.00
77411;PMS7003;66484;49.968;19.140;2024-02-23T00:54:29;6.00;5.00;4.00
77411;PMS7003;66484;49.968;19.140;2024-02-23T00:56:50;4.33;3.67;3.67
77411;PMS7003;66484;49.968;19.140;2024-02-23T00:58:58;5.00;5.00;4.00
77411;PMS7003;66484;49.968;19.140;2024-02-23T01:01:27;6.00;6.00;4.00
77411;PMS7003;66484;49.968;19.140;2024-02-23T01:03:56;7.00;7.00;5.00
77411;PMS7003;66484;49.968;19.140;2024-02-23T01:06:05;4.67;4.67;4.00
77411;PMS7003;66484;49.968;19.140;2024-02-23T01:08:26;3.00;3.00;2.67
77411;PMS7003;66484;49.968;19.140;2024-02-23T01:10:57;1.00;1.00;0.00
77411;PMS7003;66484;49.968;19.140;2024-02-23T01:13:26;5.33;5.33;5.00
77411;PMS7003;66484;49.968;19.140;2024-02-23T01:15:35;2.33;2.33;2.33
77411;PMS7003;66484;49.968;19.140;2024-02-23T01:18:03;5.67;5.67;4.67
77411;PMS7003;66484;49.968;19.140;2024-02-23T01:20:32;4.67;4.67;4.33
77411;PMS7003;66484;49.968;19.140;2024-02-23T01:22:40;6.33;5.00;5.00
77411;PMS7003;66484;49.968;19.140;2024-02-23T01:25:02;5.00;5.00;5.00
77411;PMS7003;66484;49.968;19.140;2024-02-23T01:27:12;7.00;7.00;5.00
77411;PMS7003;66484;49.968;19.140;2024-02-23T01:29:40;7.33;4.33;4.00
77411;PMS7003;66484;49.968;19.140;2024-02-23T01:31:48;7.00;7.00;6.33
77411;PMS7003;66484;49.968;19.140;2024-02-23T01:34:17;6.33;6.33;4.00
77411;PMS7003;66484;49.968;19.140;2024-02-23T01:36:32;5.67;5.67;4.67
77411;PMS7003;66484;49.968;19.140;2024-02-23T01:38:54;5.33;4.00;3.67
77411;PMS7003;66484;49.968;19.140;2024-02-23T01:41:03;5.00;5.00;4.00
77411;PMS7003;66484;49.968;19.140;2024-02-23T01:43:26;6.00;6.00;5.67
77411;PMS7003;66484;49.968;19.140;2024-02-23T01:45:41;6.00;5.67;5.00
77411;PMS7003;66484;49.968;19.140;2024-02-23T01:47:56;8.33;7.00;5.67
77411;PMS7003;66484;49.968;19.140;2024-02-23T01:50:12;7.00;6.00;5.00
77411;PMS7003;66484;49.968;19.140;2024-02-23T01:52:27;5.00;5.00;5.00
77411;PMS7003;66484;49.968;19.140;2024-02-23T01:54:42;8.00;8.00;4.67
77411;PMS7003;66484;49.968;19.140;2024-02-23T01:56:59;6.33;6.33;5.00
77411;PMS7003;66484;49.968;19.140;2024-02-23T01:59:36;7.67;4.67;4.00
77411;PMS7003;66484;49.968;19.140;2024-02-23T02:02:00;6.00;6.00;4.00
77411;PMS7003;66484;49.968;19.140;2024-02-23T02:04:09;5.33;5.33;4.00
77411;PMS7003;66484;49.968;19.140;2024-02-23T02:06:31;4.67;4.67;4.33
77411;PMS7003;66484;49.968;19.140;2024-02-23T02:08:46;4.00;3.67;3.00
77411;PMS7003;66484;49.968;19.140;2024-02-23T02:11:08;4.00;4.00;2.67
77411;PMS7003;66484;49.968;19.140;2024-02-23T02:13:17;4.00;4.00;4.00
77411;PMS7003;66484;49.968;19.140;2024-02-23T02:15:39;4.00;3.00;2.00
77411;PMS7003;66484;49.968;19.140;2024-02-23T02:17:47;5.33;4.00;3.00
77411;PMS7003;66484;49.968;19.140;2024-02-23T02:20:11;3.67;3.67;3.00
77411;PMS7003;66484;49.968;19.140;2024-02-23T02:22:21;3.67;3.67;3.67
77411;PMS7003;66484;49.968;19.140;2024-02-23T02:24:43;2.00;2.00;2.00
77411;PMS7003;66484;49.968;19.140;2024-02-23T02:26:54;3.00;3.00;2.00
77411;PMS7003;66484;49.968;19.140;2024-02-23T02:29:16;4.00;4.00;2.00
77411;PMS7003;66484;49.968;19.140;2024-02-23T02:31:31;4.00;4.00;3.33
77411;PMS7003;66484;49.968;19.140;2024-02-23T02:33:46;3.67;3.67;3.00
77411;PMS7003;66484;49.968;19.140;2024-02-23T02:36:01;4.00;4.00;3.00
77411;PMS7003;66484;49.968;19.140;2024-02-23T02:38:16;6.00;6.00;4.00
77411;PMS7003;66484;49.968;19.140;2024-02-23T02:40:31;3.00;3.00;3.00
77411;PMS7003;66484;49.968;19.140;2024-02-23T02:42:46;2.67;2.67;2.00
77411;PMS7003;66484;49.968;19.140;2024-02-23T02:45:01;4.00;4.00;3.33
77411;PMS7003;66484;49.968;19.140;2024-02-23T02:47:27;4.00;4.00;3.00
77411;PMS7003;66484;49.968;19.140;2024-02-23T02:49:35;4.00;4.00;3.00
77411;PMS7003;66484;49.968;19.140;2024-02-23T02:51:57;2.67;2.67;2.00
77411;PMS7003;66484;49.968;19.140;2024-02-23T02:54:12;3.67;3.33;2.67
77411;PMS7003;66484;49.968;19.140;2024-02-23T02:56:27;4.00;4.00;3.00
77411;PMS7003;66484;49.968;19.140;2024-02-23T02:58:42;3.33;3.33;2.67
77411;PMS7003;66484;49.968;19.140;2024-02-23T03:00:57;3.67;3.67;3.00
77411;PMS7003;66484;49.968;19.140;2024-02-23T03:03:12;4.33;4.00;3.33
77411;PMS7003;66484;49.968;19.140;2024-02-23T03:05:27;5.33;5.33;4.00
77411;PMS7003;66484;49.968;19.140;2024-02-23T03:07:42;5.33;5.33;3.67
77411;PMS7003;66484;49.968;19.140;2024-02-23T03:10:04;5.67;4.67;3.00
77411;PMS7003;66484;49.968;19.140;2024-02-23T03:12:33;7.00;4.00;3.00
77411;PMS7003;66484;49.968;19.140;2024-02-23T03:14:42;4.33;4.33;4.00
77411;PMS7003;66484;49.968;19.140;2024-02-23T03:17:03;3.67;3.67;3.00
77411;PMS7003;66484;49.968;19.140;2024-02-23T03:19:12;5.00;5.00;3.67
77411;PMS7003;66484;49.968;19.140;2024-02-23T03:21:37;9.00;6.00;5.00
77411;PMS7003;66484;49.968;19.140;2024-02-23T03:23:45;6.67;6.67;4.67
77411;PMS7003;66484;49.968;19.140;2024-02-23T03:26:07;4.33;4.33;3.67
77411;PMS7003;66484;49.968;19.140;2024-02-23T03:28:15;9.67;9.67;7.67
77411;PMS7003;66484;49.968;19.140;2024-02-23T03:30:44;9.00;8.00;6.00
77411;PMS7003;66484;49.968;19.140;2024-02-23T03:33:13;12.00;12.00;9.00
77411;PMS7003;66484;49.968;19.140;2024-02-23T03:35:21;22.33;16.33;12.00
77411;PMS7003;66484;49.968;19.140;2024-02-23T03:37:50;9.00;8.33;7.33
77411;PMS7003;66484;49.968;19.140;2024-02-23T03:39:58;7.67;6.67;6.33
77411;PMS7003;66484;49.968;19.140;2024-02-23T03:42:20;7.67;7.33;6.00
77411;PMS7003;66484;49.968;19.140;2024-02-23T03:44:29;10.67;10.67;9.00
77411;PMS7003;66484;49.968;19.140;2024-02-23T03:46:57;11.00;11.00;8.33
77411;PMS7003;66484;49.968;19.140;2024-02-23T03:49:06;15.67;15.00;12.67
77411;PMS7003;66484;49.968;19.140;2024-02-23T03:51:35;12.67;12.67;11.00
77411;PMS7003;66484;49.968;19.140;2024-02-23T03:54:04;14.67;14.67;11.00
77411;PMS7003;66484;49.968;19.140;2024-02-23T03:56:37;18.00;16.33;12.33
77411;PMS7003;66484;49.968;19.140;2024-02-23T03:59:07;21.00;19.67;14.00
77411;PMS7003;66484;49.968;19.140;2024-02-23T04:01:19;25.00;24.00;15.00
77411;PMS7003;66484;49.968;19.140;2024-02-23T04:03:47;31.00;27.00;18.67
77411;PMS7003;66484;49.968;19.140;2024-02-23T04:05:55;21.00;18.67;11.33
77411;PMS7003;66484;49.968;19.140;2024-02-23T04:08:24;18.67;16.67;13.00
77411;PMS7003;66484;49.968;19.140;2024-02-23T04:10:33;13.00;13.00;10.67
77411;PMS7003;66484;49.968;19.140;2024-02-23T04:12:55;15.00;15.00;10.33
77411;PMS7003;66484;49.968;19.140;2024-02-23T04:15:04;17.00;17.00;12.67
77411;PMS7003;66484;49.968;19.140;2024-02-23T04:17:26;21.00;20.00;14.00
77411;PMS7003;66484;49.968;19.140;2024-02-23T04:19:34;15.00;14.00;11.00
77411;PMS7003;66484;49.968;19.140;2024-02-23T04:21:56;16.33;14.67;10.33
77411;PMS7003;66484;49.968;19.140;2024-02-23T04:24:05;13.33;13.33;11.00
77411;PMS7003;66484;49.968;19.140;2024-02-23T04:26:27;17.67;17.67;13.67
77411;PMS7003;66484;49.968;19.140;2024-02-23T04:28:42;14.00;13.33;11.00
77411;PMS7003;66484;49.968;19.140;2024-02-23T04:31:04;26.00;24.33;17.33
77411;PMS7003;66484;49.968;19.140;2024-02-23T04:33:12;22.00;21.00;15.00
77411;PMS7003;66484;49.968;19.140;2024-02-23T04:35:41;21.00;20.00;16.00
77411;PMS7003;66484;49.968;19.140;2024-02-23T04:37:49;30.00;30.00;20.33
77411;PMS7003;66484;49.968;19.140;2024-02-23T04:40:18;17.67;17.67;14.67
77411;PMS7003;66484;49.968;19.140;2024-02-23T04:42:47;17.00;13.00;12.00
77411;PMS7003;66484;49.968;19.140;2024-02-23T04:45:16;26.33;25.00;17.33
77411;PMS7003;66484;49.968;19.140;2024-02-23T04:47:24;28.33;28.33;20.33
77411;PMS7003;66484;49.968;19.140;2024-02-23T04:49:47;35.00;32.00;22.00
77411;PMS7003;66484;49.968;19.140;2024-02-23T04:51:56;32.00;29.00;20.00
77411;PMS7003;66484;49.968;19.140;2024-02-23T04:54:24;22.00;20.33;16.67
77411;PMS7003;66484;49.968;19.140;2024-02-23T04:56:53;21.67;21.67;17.67
77411;PMS7003;66484;49.968;19.140;2024-02-23T04:59:22;22.00;18.00;15.33
77411;PMS7003;66484;49.968;19.140;2024-02-23T05:01:34;23.67;22.00;16.00
77411;PMS7003;66484;49.968;19.140;2024-02-23T05:04:04;26.67;21.33;16.67
77411;PMS7003;66484;49.968;19.140;2024-02-23T05:06:33;23.00;21.33;15.33
77411;PMS7003;66484;49.968;19.140;2024-02-23T05:09:02;18.33;15.33;10.67
77411;PMS7003;66484;49.968;19.140;2024-02-23T05:11:10;22.00;19.67;15.33
77411;PMS7003;66484;49.968;19.140;2024-02-23T05:13:35;20.00;19.67;16.00
77411;PMS7003;66484;49.968;19.140;2024-02-23T05:15:45;22.00;22.00;16.00
77411;PMS7003;66484;49.968;19.140;2024-02-23T05:18:14;23.00;22.00;16.67
77411;PMS7003;66484;49.968;19.140;2024-02-23T05:20:43;19.33;19.33;15.00
77411;PMS7003;66484;49.968;19.140;2024-02-23T05:23:12;18.00;17.33;13.00
77411;PMS7003;66484;49.968;19.140;2024-02-23T05:25:24;18.33;18.33;13.00
77411;PMS7003;66484;49.968;19.140;2024-02-23T05:27:52;13.33;12.33;9.00
77411;PMS7003;66484;49.968;19.140;2024-02-23T05:30:01;18.00;18.00;12.00
77411;PMS7003;66484;49.968;19.140;2024-02-23T05:32:25;21.33;19.00;13.67
77411;PMS7003;66484;49.968;19.140;2024-02-23T05:34:34;21.00;21.00;14.67
77411;PMS7003;66484;49.968;19.140;2024-02-23T05:36:56;21.67;21.00;16.00
77411;PMS7003;66484;49.968;19.140;2024-02-23T05:39:04;24.00;22.00;15.00
77411;PMS7003;66484;49.968;19.140;2024-02-23T05:41:34;21.33;21.33;16.00
77411;PMS7003;66484;49.968;19.140;2024-02-23T05:44:03;34.33;30.67;22.00
77411;PMS7003;66484;49.968;19.140;2024-02-23T05:46:13;25.67;24.67;19.33
77411;PMS7003;66484;49.968;19.140;2024-02-23T05:48:42;24.67;20.00;16.00
77411;PMS7003;66484;49.968;19.140;2024-02-23T05:51:11;31.67;28.67;20.00
77411;PMS7003;66484;49.968;19.140;2024-02-23T05:53:20;27.33;23.67;18.33
77411;PMS7003;66484;49.968;19.140;2024-02-23T05:55:48;32.67;28.33;20.00
77411;PMS7003;66484;49.968;19.140;2024-02-23T05:57:56;29.00;24.67;18.00
77411;PMS7003;66484;49.968;19.140;2024-02-23T06:00:20;27.33;24.00;16.00
77411;PMS7003;66484;49.968;19.140;2024-02-23T06:02:29;26.00;24.00;19.00
77411;PMS7003;66484;49.968;19.140;2024-02-23T06:04:51;27.00;22.33;17.00
77411;PMS7003;66484;49.968;19.140;2024-02-23T06:07:00;28.33;28.33;20.00
77411;PMS7003;66484;49.968;19.140;2024-02-23T06:09:22;35.00;31.00;21.00
77411;PMS7003;66484;49.968;19.140;2024-02-23T06:11:31;32.67;29.00;20.00
77411;PMS7003;66484;49.968;19.140;2024-02-23T06:13:52;49.00;40.50;28.00
77411;PMS7003;66484;49.968;19.140;2024-02-23T06:16:00;37.00;29.33;19.67
77411;PMS7003;66484;49.968;19.140;2024-02-23T06:18:29;19.67;18.00;14.00
77411;PMS7003;66484;49.968;19.140;2024-02-23T06:20:37;15.67;15.67;10.33
77411;PMS7003;66484;49.968;19.140;2024-02-23T06:22:59;20.33;19.33;14.33
77411;PMS7003;66484;49.968;19.140;2024-02-23T06:25:07;21.67;17.00;13.33
77411;PMS7003;66484;49.968;19.140;2024-02-23T06:27:36;22.33;18.00;13.67
77411;PMS7003;66484;49.968;19.140;2024-02-23T06:30:05;25.67;25.67;17.00
77411;PMS7003;66484;49.968;19.140;2024-02-23T06:32:14;31.67;30.33;20.00
77411;PMS7003;66484;49.968;19.140;2024-02-23T06:34:43;32.67;31.00;19.67
77411;PMS7003;66484;49.968;19.140;2024-02-23T06:36:52;32.33;28.33;20.00
77411;PMS7003;66484;49.968;19.140;2024-02-23T06:39:21;54.75;45.50;29.00
77411;PMS7003;66484;49.968;19.140;2024-02-23T06:41:50;57.75;47.25;32.00
77411;PMS7003;66484;49.968;19.140;2024-02-23T06:43:59;59.25;47.50;32.25
77411;PMS7003;66484;49.968;19.140;2024-02-23T06:46:28;33.33;32.00;23.00
77411;PMS7003;66484;49.968;19.140;2024-02-23T06:48:57;26.33;25.67;19.67
77411;PMS7003;66484;49.968;19.140;2024-02-23T06:51:05;30.67;26.33;19.00
77411;PMS7003;66484;49.968;19.140;2024-02-23T06:53:27;24.00;22.00;17.67
77411;PMS7003;66484;49.968;19.140;2024-02-23T06:55:36;23.67;23.00;17.00
77411;PMS7003;66484;49.968;19.140;2024-02-23T06:57:58;27.33;25.00;17.33
77411;PMS7003;66484;49.968;19.140;2024-02-23T07:00:13;22.33;21.33;14.67
77411;PMS7003;66484;49.968;19.140;2024-02-23T07:02:32;29.33;24.00;18.67
77411;PMS7003;66484;49.968;19.140;2024-02-23T07:04:50;28.00;25.67;16.67
77411;PMS7003;66484;49.968;19.140;2024-02-23T07:07:13;21.33;21.33;15.00
77411;PMS7003;66484;49.968;19.140;2024-02-23T07:09:21;32.00;29.33;19.00
77411;PMS7003;66484;49.968;19.140;2024-02-23T07:11:43;30.33;27.33;17.67
77411;PMS7003;66484;49.968;19.140;2024-02-23T07:13:53;38.67;35.00;23.67
77411;PMS7003;66484;49.968;19.140;2024-02-23T07:16:15;41.00;34.00;23.33
77411;PMS7003;66484;49.968;19.140;2024-02-23T07:18:30;50.00;38.50;26.50
77411;PMS7003;66484;49.968;19.140;2024-02-23T07:20:45;67.75;53.50;33.25
77411;PMS7003;66484;49.968;19.140;2024-02-23T07:23:00;69.25;54.00;35.00
77411;PMS7003;66484;49.968;19.140;2024-02-23T07:25:16;45.50;36.50;24.25
77411;PMS7003;66484;49.968;19.140;2024-02-23T07:27:36;43.67;36.67;24.00
77411;PMS7003;66484;49.968;19.140;2024-02-23T07:29:51;46.50;37.50;24.00
77411;PMS7003;66484;49.968;19.140;2024-02-23T07:32:06;23.33;20.67;14.67
77411;PMS7003;66484;49.968;19.140;2024-02-23T07:34:28;23.67;22.33;16.00
77411;PMS7003;66484;49.968;19.140;2024-02-23T07:36:37;23.67;23.00;17.00
77411;PMS7003;66484;49.968;19.140;2024-02-23T07:38:59;25.33;23.67;14.67
77411;PMS7003;66484;49.968;19.140;2024-02-23T07:41:07;17.67;15.33;9.00
77411;PMS7003;66484;49.968;19.140;2024-02-23T07:43:29;21.33;19.00;13.33
77411;PMS7003;66484;49.968;19.140;2024-02-23T07:45:44;19.00;17.00;13.00
77411;PMS7003;66484;49.968;19.140;2024-02-23T07:47:59;13.67;13.67;11.33
77411;PMS7003;66484;49.968;19.140;2024-02-23T07:50:14;20.67;20.00;14.67
77411;PMS7003;66484;49.968;19.140;2024-02-23T07:52:29;12.00;11.67;11.00
77411;PMS7003;66484;49.968;19.140;2024-02-23T07:54:44;10.00;10.00;7.67
77411;PMS7003;66484;49.968;19.140;2024-02-23T07:56:52;18.67;16.67;11.00
77411;PMS7003;66484;49.968;19.140;2024-02-23T07:59:07;20.67;19.67;13.33
77411;PMS7003;66484;49.968;19.140;2024-02-23T08:01:22;22.00;20.67;14.00
77411;PMS7003;66484;49.968;19.140;2024-02-23T08:03:37;18.00;14.67;11.00
77411;PMS7003;66484;49.968;19.140;2024-02-23T08:05:52;15.33;14.33;11.00
77411;PMS7003;66484;49.968;19.140;2024-02-23T08:08:15;25.67;23.00;14.00
77411;PMS7003;66484;49.968;19.140;2024-02-23T08:10:24;24.67;20.33;15.00
77411;PMS7003;66484;49.968;19.140;2024-02-23T08:12:53;20.67;18.67;13.00
77411;PMS7003;66484;49.968;19.140;2024-02-23T08:15:22;20.33;19.00;13.00
77411;PMS7003;66484;49.968;19.140;2024-02-23T08:17:37;21.33;17.00;11.00
77411;PMS7003;66484;49.968;19.140;2024-02-23T08:19:53;18.00;18.00;13.00
77411;PMS7003;66484;49.968;19.140;2024-02-23T08:22:08;20.00;16.67;12.67
77411;PMS7003;66484;49.968;19.140;2024-02-23T08:24:24;13.33;12.67;9.00
77411;PMS7003;66484;49.968;19.140;2024-02-23T08:26:41;21.67;16.33;13.00
77411;PMS7003;66484;49.968;19.140;2024-02-23T08:29:03;17.33;15.67;11.67
77411;PMS7003;66484;49.968;19.140;2024-02-23T08:31:12;26.33;18.33;13.33
77411;PMS7003;66484;49.968;19.140;2024-02-23T08:33:34;24.00;23.00;16.33
77411;PMS7003;66484;49.968;19.140;2024-02-23T08:35:42;20.00;20.00;14.67
77411;PMS7003;66484;49.968;19.140;2024-02-23T08:38:04;22.00;21.00;15.00
77411;PMS7003;66484;49.968;19.140;2024-02-23T08:40:19;16.00;12.00;5.33
77411;PMS7003;66484;49.968;19.140;2024-02-23T08:42:41;39.33;33.67;23.00
77411;PMS7003;66484;49.968;19.140;2024-02-23T08:44:57;20.00;19.00;15.67
77411;PMS7003;66484;49.968;19.140;2024-02-23T08:47:19;20.00;17.33;13.33
77411;PMS7003;66484;49.968;19.140;2024-02-23T08:49:27;23.67;20.33;13.67
77411;PMS7003;66484;49.968;19.140;2024-02-23T08:51:49;40.00;35.33;24.00
77411;PMS7003;66484;49.968;19.140;2024-02-23T08:53:57;44.67;36.00;25.00
77411;PMS7003;66484;49.968;19.140;2024-02-23T08:56:28;47.00;37.75;25.75
77411;PMS7003;66484;49.968;19.140;2024-02-23T08:58:57;50.75;40.50;27.00
77411;PMS7003;66484;49.968;19.140;2024-02-23T09:01:09;59.50;48.25;33.00
77411;PMS7003;66484;49.968;19.140;2024-02-23T09:03:31;35.33;30.00;19.67
77411;PMS7003;66484;49.968;19.140;2024-02-23T09:05:39;44.33;37.67;24.00
77411;PMS7003;66484;49.968;19.140;2024-02-23T09:08:12;27.00;21.33;18.00
77411;PMS7003;66484;49.968;19.140;2024-02-23T09:10:42;35.00;31.00;22.33
77411;PMS7003;66484;49.968;19.140;2024-02-23T09:13:11;33.33;27.67;18.67
77411;PMS7003;66484;49.968;19.140;2024-02-23T09:15:40;36.33;32.00;20.33
77411;PMS7003;66484;49.968;19.140;2024-02-23T09:17:57;48.67;41.00;26.33
77411;PMS7003;66484;49.968;19.140;2024-02-23T09:20:13;148.75;128.00;72.00
77411;PMS7003;66484;49.968;19.140;2024-02-23T09:22:28;97.25;80.25;47.00
77411;PMS7003;66484;49.968;19.140;2024-02-23T09:24:51;90.50;71.00;44.00
77411;PMS7003;66484;49.968;19.140;2024-02-23T09:26:59;58.50;43.50;28.00
77411;PMS7003;66484;49.968;19.140;2024-02-23T09:29:21;51.25;41.25;26.75
77411;PMS7003;66484;49.968;19.140;2024-02-23T09:31:36;35.00;32.67;22.33
77411;PMS7003;66484;49.968;19.140;2024-02-23T09:33:58;48.67;39.33;27.67
77411;PMS7003;66484;49.968;19.140;2024-02-23T09:36:13;52.00;39.00;26.00
77411;PMS7003;66484;49.968;19.140;2024-02-23T09:38:28;45.33;36.33;24.00
77411;PMS7003;66484;49.968;19.140;2024-02-23T09:40:43;45.33;37.33;24.00
77411;PMS7003;66484;49.968;19.140;2024-02-23T09:42:58;35.67;32.00;23.00
77411;PMS7003;66484;49.968;19.140;2024-02-23T09:45:13;36.67;33.33;22.00
77411;PMS7003;66484;49.968;19.140;2024-02-23T09:47:29;24.00;22.00;15.33
77411;PMS7003;66484;49.968;19.140;2024-02-23T09:49:46;27.33;22.33;17.00
77411;PMS7003;66484;49.968;19.140;2024-02-23T09:52:11;23.33;22.33;16.00
77411;PMS7003;66484;49.968;19.140;2024-02-23T09:54:20;35.00;32.33;20.33
77411;PMS7003;66484;49.968;19.140;2024-02-23T09:56:42;32.67;31.67;22.00
77411;PMS7003;66484;49.968;19.140;2024-02-23T09:58:50;22.33;21.00;15.00
77411;PMS7003;66484;49.968;19.140;2024-02-23T10:01:14;19.00;18.00;13.00
77411;PMS7003;66484;49.968;19.140;2024-02-23T10:03:28;19.67;17.33;13.67
77411;PMS7003;66484;49.968;19.140;2024-02-23T10:05:51;17.67;15.00;12.00
77411;PMS7003;66484;49.968;19.140;2024-02-23T10:07:59;13.00;10.67;8.00
77411;PMS7003;66484;49.968;19.140;2024-02-23T10:10:24;19.67;17.33;12.67
77411;PMS7003;66484;49.968;19.140;2024-02-23T10:12:53;20.33;19.00;14.33
77411;PMS7003;66484;49.968;19.140;2024-02-23T10:15:22;11.33;11.33;8.67
77411;PMS7003;66484;49.968;19.140;2024-02-23T10:17:31;11.33;11.33;9.00
77411;PMS7003;66484;49.968;19.140;2024-02-23T10:19:54;9.00;9.00;7.00
77411;PMS7003;66484;49.968;19.140;2024-02-23T10:22:03;8.33;8.33;6.00
77411;PMS7003;66484;49.968;19.140;2024-02-23T10:24:25;11.00;9.67;7.67
77411;PMS7003;66484;49.968;19.140;2024-02-23T10:26:33;14.33;13.33;10.00
77411;PMS7003;66484;49.968;19.140;2024-02-23T10:28:55;29.33;27.33;14.33
77411;PMS7003;66484;49.968;19.140;2024-02-23T10:31:04;28.33;26.33;17.00
77411;PMS7003;66484;49.968;19.140;2024-02-23T10:33:27;19.67;17.00;13.00
77411;PMS7003;66484;49.968;19.140;2024-02-23T10:35:36;13.67;13.67;9.00
77411;PMS7003;66484;49.968;19.140;2024-02-23T10:38:00;6.33;5.33;4.33
77411;PMS7003;66484;49.968;19.140;2024-02-23T10:40:11;10.67;10.67;7.00
77411;PMS7003;66484;49.968;19.140;2024-02-23T10:42:41;4.00;4.00;3.00
77411;PMS7003;66484;49.968;19.140;2024-02-23T10:44:58;6.33;4.67;3.33
77411;PMS7003;66484;49.968;19.140;2024-02-23T10:47:20;1.67;1.00;1.00
77411;PMS7003;66484;49.968;19.140;2024-02-23T10:49:30;4.00;4.00;3.00
77411;PMS7003;66484;49.968;19.140;2024-02-23T10:51:53;4.00;4.00;3.00
77411;PMS7003;66484;49.968;19.140;2024-02-23T10:54:02;6.00;6.00;5.00
77411;PMS7003;66484;49.968;19.140;2024-02-23T10:56:24;2.33;2.33;2.33
77411;PMS7003;66484;49.968;19.140;2024-02-23T10:58:40;4.67;4.67;3.67
77411;PMS7003;66484;49.968;19.140;2024-02-23T11:01:02;4.00;4.00;3.00
77411;PMS7003;66484;49.968;19.140;2024-02-23T11:03:21;4.67;4.00;3.00
77411;PMS7003;66484;49.968;19.140;2024-02-23T11:05:43;5.33;5.33;4.00
77411;PMS7003;66484;49.968;19.140;2024-02-23T11:07:56;23.33;20.67;15.33
77411;PMS7003;66484;49.968;19.140;2024-02-23T11:10:25;5.33;5.33;4.00
77411;PMS7003;66484;49.968;19.140;2024-02-23T11:12:57;11.67;10.67;7.00
77411;PMS7003;66484;49.968;19.140;2024-02-23T11:15:10;9.00;7.33;5.00
77411;PMS7003;66484;49.968;19.140;2024-02-23T11:17:54;9.33;8.33;6.33
77411;PMS7003;66484;49.968;19.140;2024-02-23T11:20:04;8.67;6.67;6.00
77411;PMS7003;66484;49.968;19.140;2024-02-23T11:22:26;11.33;10.33;7.33
77411;PMS7003;66484;49.968;19.140;2024-02-23T11:24:43;9.33;9.33;7.67
77411;PMS7003;66484;49.968;19.140;2024-02-23T11:27:15;6.67;6.67;4.67
77411;PMS7003;66484;49.968;19.140;2024-02-23T11:29:29;9.00;9.00;6.00
77411;PMS7003;66484;49.968;19.140;2024-02-23T11:31:54;12.33;11.00;8.00
77411;PMS7003;66484;49.968;19.140;2024-02-23T11:34:08;12.33;10.00;8.33
77411;PMS7003;66484;49.968;19.140;2024-02-23T11:36:38;10.67;9.33;7.67
77411;PMS7003;66484;49.968;19.140;2024-02-23T11:39:07;10.00;10.00;6.00
77411;PMS7003;66484;49.968;19.140;2024-02-23T11:41:21;8.33;7.33;5.67
77411;PMS7003;66484;49.968;19.140;2024-02-23T11:43:44;7.33;7.33;5.00
77411;PMS7003;66484;49.968;19.140;2024-02-23T11:46:14;1.00;1.00;1.00
77411;PMS7003;66484;49.968;19.140;2024-02-23T11:48:30;7.00;7.00;5.00
77411;PMS7003;66484;49.968;19.140;2024-02-23T11:50:45;10.33;10.33;6.33
77411;PMS7003;66484;49.968;19.140;2024-02-23T11:53:03;9.00;9.00;6.67
77411;PMS7003;66484;49.968;19.140;2024-02-23T11:55:21;10.67;10.00;7.67
77411;PMS7003;66484;49.968;19.140;2024-02-23T11:57:36;9.67;8.00;6.00
77411;PMS7003;66484;49.968;19.140;2024-02-23T11:59:55;15.00;13.00;10.00
77411;PMS7003;66484;49.968;19.140;2024-02-23T12:02:10;12.33;11.00;7.67
77411;PMS7003;66484;49.968;19.140;2024-02-23T12:04:34;16.33;14.67;9.00
77411;PMS7003;66484;49.968;19.140;2024-02-23T12:06:43;16.33;16.00;10.00
77411;PMS7003;66484;49.968;19.140;2024-02-23T12:09:13;12.67;12.67;9.00
77411;PMS7003;66484;49.968;19.140;2024-02-23T12:11:43;9.33;9.33;8.00
77411;PMS7003;66484;49.968;19.140;2024-02-23T12:13:52;18.33;15.33;11.00
77411;PMS7003;66484;49.968;19.140;2024-02-23T12:16:15;13.67;13.67;11.33
77411;PMS7003;66484;49.968;19.140;2024-02-23T12:18:23;16.00;12.00;9.00
77411;PMS7003;66484;49.968;19.140;2024-02-23T12:20:47;17.33;17.00;11.33
77411;PMS7003;66484;49.968;19.140;2024-02-23T12:22:56;13.67;13.67;11.00
77411;PMS7003;66484;49.968;19.140;2024-02-23T12:25:25;14.00;13.00;10.33
77411;PMS7003;66484;49.968;19.140;2024-02-23T12:27:57;16.00;16.00;9.67
77411;PMS7003;66484;49.968;19.140;2024-02-23T12:30:13;14.33;13.33;8.67
77411;PMS7003;66484;49.968;19.140;2024-02-23T12:32:35;12.00;12.00;8.67
77411;PMS7003;66484;49.968;19.140;2024-02-23T12:34:44;11.33;10.33;9.00
77411;PMS7003;66484;49.968;19.140;2024-02-23T12:37:07;10.00;10.00;8.00
77411;PMS7003;66484;49.968;19.140;2024-02-23T12:39:17;8.00;8.00;5.00
77411;PMS7003;66484;49.968;19.140;2024-02-23T12:41:45;9.67;8.33;6.33
77411;PMS7003;66484;49.968;19.140;2024-02-23T12:44:14;9.33;8.67;7.00
77411;PMS7003;66484;49.968;19.140;2024-02-23T12:46:23;13.33;11.00;8.00
77411;PMS7003;66484;49.968;19.140;2024-02-23T12:48:44;13.00;13.00;10.00
77411;PMS7003;66484;49.968;19.140;2024-02-23T12:50:53;17.67;15.00;9.67
77411;PMS7003;66484;49.968;19.140;2024-02-23T12:53:33;12.00;10.00;6.00
77411;PMS7003;66484;49.968;19.140;2024-02-23T12:55:47;21.33;21.33;16.00
77411;PMS7003;66484;49.968;19.140;2024-02-23T12:58:16;22.67;20.33;14.33
77411;PMS7003;66484;49.968;19.140;2024-02-23T13:00:24;18.33;17.67;10.67